sensor_id;sensor_type;location;lat;lon;timestamp;pressure;altitude;pressure_sealevel;temperature;humidity
9839;BME280;4958;48.150;11.506;2022-07-10T10:44:21;96106.72;;;21.41;49.75
9839;BME280;4958;48.150;11.506;2022-07-10T10:46:56;96111.53;;;21.21;48.00
9839;BME280;4958;48.150;11.506;2022-07-10T10:49:27;96106.19;;;21.04;49.70
9839;BME280;4958;48.150;11.506;2022-07-10T10:52:13;96110.75;;;20.97;50.46
9839;BME280;4958;48.150;11.506;2022-07-10T10:54:59;96107.44;;;21.13;50.08
9839;BME280;4958;48.150;11.506;2022-07-10T10:57:35;96101.03;;;21.44;49.93
9839;BME280;4958;48.150;11.506;2022-07-10T11:00:07;96117.03;;;21.71;48.40
9839;BME280;4958;48.150;11.506;2022-07-10T11:02:36;96098.78;;;22.04;46.56
9839;BME280;4958;48.150;11.506;2022-07-10T11:05:40;96100.63;;;22.04;47.54
9839;BME280;4958;48.150;11.506;2022-07-10T11:08:10;96109.16;;;22.11;47.45
9839;BME280;4958;48.150;11.506;2022-07-10T11:10:38;96109.44;;;21.86;46.86
9839;BME280;4958;48.150;11.506;2022-07-10T11:13:07;96104.56;;;21.78;47.91
9839;BME280;4958;48.150;11.506;2022-07-10T11:15:36;96101.91;;;21.90;47.63
9839;BME280;4958;48.150;11.506;2022-07-10T11:18:04;96103.97;;;21.88;47.77
9839;BME280;4958;48.150;11.506;2022-07-10T11:20:32;96110.94;;;21.82;46.86
9839;BME280;4958;48.150;11.506;2022-07-10T11:23:11;96107.84;;;21.85;47.15
9839;BME280;4958;48.150;11.506;2022-07-10T11:25:41;96108.38;;;21.70;45.92
9839;BME280;4958;48.150;11.506;2022-07-10T11:28:10;96110.66;;;21.67;46.98
9839;BME280;4958;48.150;11.506;2022-07-10T11:30:46;96094.81;;;21.62;46.36
9839;BME280;4958;48.150;11.506;2022-07-10T11:33:14;96095.78;;;21.84;45.45
9839;BME280;4958;48.150;11.506;2022-07-10T11:35:44;96099.28;;;22.52;44.80
9839;BME280;4958;48.150;11.506;2022-07-10T11:38:11;96089.81;;;23.01;44.23
9839;BME280;4958;48.150;11.506;2022-07-10T11:40:38;96100.00;;;22.97;44.65
9839;BME280;4958;48.150;11.506;2022-07-10T11:43:04;96106.47;;;23.06;44.09
9839;BME280;4958;48.150;11.506;2022-07-10T11:45:34;96094.97;;;23.13;44.21
9839;BME280;4958;48.150;11.506;2022-07-10T11:48:05;96094.09;;;23.46;43.28
9839;BME280;4958;48.150;11.506;2022-07-10T11:50:37;96099.78;;;23.59;44.61
9839;BME280;4958;48.150;11.506;2022-07-10T11:53:04;96094.06;;;23.67;42.79
9839;BME280;4958;48.150;11.506;2022-07-10T11:55:31;96095.50;;;23.53;43.64
9839;BME280;4958;48.150;11.506;2022-07-10T11:58:12;96100.91;;;23.25;42.40
9839;BME280;4958;48.150;11.506;2022-07-10T12:00:39;96092.28;;;23.07;42.98
9839;BME280;4958;48.150;11.506;2022-07-10T12:03:18;96083.53;;;23.02;42.46
9839;BME280;4958;48.150;11.506;2022-07-10T12:05:46;96085.78;;;22.93;43.65
9839;BME280;4958;48.150;11.506;2022-07-10T12:08:13;96094.31;;;22.84;43.53
9839;BME280;4958;48.150;11.506;2022-07-10T12:10:40;96092.41;;;22.79;44.28
9839;BME280;4958;48.150;11.506;2022-07-10T12:13:09;96098.03;;;22.71;43.70
9839;BME280;4958;48.150;11.506;2022-07-10T12:15:37;96091.13;;;22.65;43.67
9839;BME280;4958;48.150;11.506;2022-07-10T12:18:06;96088.19;;;22.45;43.95
9839;BME280;4958;48.150;11.506;2022-07-10T12:20:34;96092.47;;;22.67;43.83
9839;BME280;4958;48.150;11.506;2022-07-10T12:23:03;96093.50;;;22.66;43.42
9839;BME280;4958;48.150;11.506;2022-07-10T12:25:29;96091.94;;;22.82;42.88
9839;BME280;4958;48.150;11.506;2022-07-10T12:27:56;96089.19;;;22.94;43.48
9839;BME280;4958;48.150;11.506;2022-07-10T12:30:35;96082.34;;;22.93;43.29
9839;BME280;4958;48.150;11.506;2022-07-10T12:33:06;96090.66;;;22.85;43.38
9839;BME280;4958;48.150;11.506;2022-07-10T12:35:46;96089.66;;;22.74;43.38
9839;BME280;4958;48.150;11.506;2022-07-10T12:38:15;96090.47;;;22.74;43.64
9839;BME280;4958;48.150;11.506;2022-07-10T12:40:41;96098.28;;;22.86;43.11
9839;BME280;4958;48.150;11.506;2022-07-10T12:43:08;96090.00;;;22.78;44.15
9839;BME280;4958;48.150;11.506;2022-07-10T12:45:36;96099.31;;;22.68;44.85
9839;BME280;4958;48.150;11.506;2022-07-10T12:48:04;96089.50;;;22.97;42.94
9839;BME280;4958;48.150;11.506;2022-07-10T12:50:32;96094.25;;;23.17;42.78
9839;BME280;4958;48.150;11.506;2022-07-10T12:53:09;96090.97;;;23.27;41.58
9839;BME280;4958;48.150;11.506;2022-07-10T12:55:38;96089.72;;;23.34;42.34
9839;BME280;4958;48.150;11.506;2022-07-10T12:58:07;96090.28;;;23.36;42.80
9839;BME280;4958;48.150;11.506;2022-07-10T13:00:43;96091.06;;;23.37;42.26
9839;BME280;4958;48.150;11.506;2022-07-10T13:03:11;96097.47;;;23.02;43.39
9839;BME280;4958;48.150;11.506;2022-07-10T13:05:40;96102.00;;;22.90;43.11
9839;BME280;4958;48.150;11.506;2022-07-10T13:08:10;96110.06;;;22.84;43.29
9839;BME280;4958;48.150;11.506;2022-07-10T13:10:38;96107.97;;;23.02;45.59
9839;BME280;4958;48.150;11.506;2022-07-10T13:13:05;96114.41;;;23.33;44.29
9839;BME280;4958;48.150;11.506;2022-07-10T13:15:32;96106.13;;;23.41;41.94
9839;BME280;4958;48.150;11.506;2022-07-10T13:17:59;96097.31;;;23.74;45.88
9839;BME280;4958;48.150;11.506;2022-07-10T13:20:26;96114.88;;;23.69;41.76
9839;BME280;4958;48.150;11.506;2022-07-10T13:22:52;96103.38;;;23.53;42.11
9839;BME280;4958;48.150;11.506;2022-07-10T13:25:20;96104.44;;;23.52;41.12
9839;BME280;4958;48.150;11.506;2022-07-10T13:27:46;96098.03;;;23.65;40.88
9839;BME280;4958;48.150;11.506;2022-07-10T13:30:13;96107.22;;;23.89;43.23
9839;BME280;4958;48.150;11.506;2022-07-10T13:32:39;96091.56;;;23.77;40.00
9839;BME280;4958;48.150;11.506;2022-07-10T13:35:06;96100.81;;;23.58;41.75
9839;BME280;4958;48.150;11.506;2022-07-10T13:37:34;96094.03;;;23.40;40.29
9839;BME280;4958;48.150;11.506;2022-07-10T13:40:01;96102.00;;;23.51;41.33
9839;BME280;4958;48.150;11.506;2022-07-10T13:42:28;96108.72;;;23.58;40.73
9839;BME280;4958;48.150;11.506;2022-07-10T13:44:55;96091.59;;;23.56;39.93
9839;BME280;4958;48.150;11.506;2022-07-10T13:47:21;96101.00;;;23.73;39.45
9839;BME280;4958;48.150;11.506;2022-07-10T13:49:48;96090.06;;;23.87;38.42
9839;BME280;4958;48.150;11.506;2022-07-10T13:52:15;96088.25;;;23.87;39.21
9839;BME280;4958;48.150;11.506;2022-07-10T13:54:41;96097.72;;;23.88;37.75
9839;BME280;4958;48.150;11.506;2022-07-10T13:57:08;96107.25;;;23.94;39.16
9839;BME280;4958;48.150;11.506;2022-07-10T13:59:36;96103.16;;;24.03;37.72
9839;BME280;4958;48.150;11.506;2022-07-10T14:02:03;96091.88;;;24.08;38.61
9839;BME280;4958;48.150;11.506;2022-07-10T14:04:29;96100.84;;;24.12;37.91
9839;BME280;4958;48.150;11.506;2022-07-10T14:06:56;96106.72;;;24.19;37.91
9839;BME280;4958;48.150;11.506;2022-07-10T14:09:22;96099.88;;;24.18;37.43
9839;BME280;4958;48.150;11.506;2022-07-10T14:11:57;96102.16;;;24.09;37.29
9839;BME280;4958;48.150;11.506;2022-07-10T14:14:48;96099.22;;;24.06;37.18
9839;BME280;4958;48.150;11.506;2022-07-10T14:17:14;96090.53;;;24.05;37.47
9839;BME280;4958;48.150;11.506;2022-07-10T14:19:40;96096.69;;;24.16;37.19
9839;BME280;4958;48.150;11.506;2022-07-10T14:22:07;96095.59;;;24.12;37.47
9839;BME280;4958;48.150;11.506;2022-07-10T14:24:36;96100.31;;;24.10;37.39
9839;BME280;4958;48.150;11.506;2022-07-10T14:27:03;96108.75;;;24.12;37.56
9839;BME280;4958;48.150;11.506;2022-07-10T14:29:31;96101.75;;;24.23;37.73
9839;BME280;4958;48.150;11.506;2022-07-10T14:31:59;96088.25;;;24.14;38.09
9839;BME280;4958;48.150;11.506;2022-07-10T14:34:25;96102.00;;;24.21;37.91
9839;BME280;4958;48.150;11.506;2022-07-10T14:36:54;96101.03;;;24.27;37.15
9839;BME280;4958;48.150;11.506;2022-07-10T14:39:21;96100.75;;;24.24;36.95
9839;BME280;4958;48.150;11.506;2022-07-10T14:41:47;96094.00;;;24.11;38.22
9839;BME280;4958;48.150;11.506;2022-07-10T14:44:14;96103.06;;;24.20;37.48
9839;BME280;4958;48.150;11.506;2022-07-10T14:46:40;96103.50;;;24.12;36.54
9839;BME280;4958;48.150;11.506;2022-07-10T14:49:09;96097.19;;;24.13;36.39
9839;BME280;4958;48.150;11.506;2022-07-10T14:51:35;96096.84;;;24.31;37.93
9839;BME280;4958;48.150;11.506;2022-07-10T14:54:02;96090.88;;;24.14;37.33
9839;BME280;4958;48.150;11.506;2022-07-10T14:56:28;96101.84;;;24.06;37.37
9839;BME280;4958;48.150;11.506;2022-07-10T14:58:55;96094.56;;;24.13;36.86
9839;BME280;4958;48.150;11.506;2022-07-10T15:01:21;96093.03;;;24.17;36.93
9839;BME280;4958;48.150;11.506;2022-07-10T15:03:48;96099.06;;;24.18;36.07
9839;BME280;4958;48.150;11.506;2022-07-10T15:06:15;96105.78;;;24.30;36.32
9839;BME280;4958;48.150;11.506;2022-07-10T15:08:42;96092.53;;;24.20;36.74
9839;BME280;4958;48.150;11.506;2022-07-10T15:11:08;96102.06;;;24.26;36.51
9839;BME280;4958;48.150;11.506;2022-07-10T15:13:35;96102.44;;;24.13;36.70
9839;BME280;4958;48.150;11.506;2022-07-10T15:16:01;96094.56;;;24.13;36.38
9839;BME280;4958;48.150;11.506;2022-07-10T15:18:28;96101.84;;;24.06;36.10
9839;BME280;4958;48.150;11.506;2022-07-10T15:20:54;96098.41;;;24.05;35.72
9839;BME280;4958;48.150;11.506;2022-07-10T15:23:23;96102.00;;;23.94;35.75
9839;BME280;4958;48.150;11.506;2022-07-10T15:25:50;96104.78;;;23.83;35.99
9839;BME280;4958;48.150;11.506;2022-07-10T15:28:17;96097.78;;;23.93;36.62
9839;BME280;4958;48.150;11.506;2022-07-10T15:30:43;96093.00;;;23.90;35.61
9839;BME280;4958;48.150;11.506;2022-07-10T15:33:10;96112.94;;;23.86;35.80
9839;BME280;4958;48.150;11.506;2022-07-10T15:35:37;96103.38;;;23.75;36.39
9839;BME280;4958;48.150;11.506;2022-07-10T15:38:03;96097.81;;;23.71;36.61
9839;BME280;4958;48.150;11.506;2022-07-10T15:40:31;96100.25;;;23.78;35.88
9839;BME280;4958;48.150;11.506;2022-07-10T15:42:58;96098.06;;;23.70;36.04
9839;BME280;4958;48.150;11.506;2022-07-10T15:45:25;96096.22;;;23.70;36.38
9839;BME280;4958;48.150;11.506;2022-07-10T15:47:51;96103.88;;;23.72;36.74
9839;BME280;4958;48.150;11.506;2022-07-10T15:50:18;96107.41;;;23.83;36.54
9839;BME280;4958;48.150;11.506;2022-07-10T15:52:45;96098.06;;;23.70;35.85
9839;BME280;4958;48.150;11.506;2022-07-10T15:55:11;96095.03;;;23.56;35.68
9839;BME280;4958;48.150;11.506;2022-07-10T15:57:39;96093.97;;;23.57;36.04
9839;BME280;4958;48.150;11.506;2022-07-10T16:00:07;96097.78;;;23.50;36.35
9839;BME280;4958;48.150;11.506;2022-07-10T16:02:34;96094.56;;;23.42;35.88
9839;BME280;4958;48.150;11.506;2022-07-10T16:05:01;96094.63;;;23.26;36.28
9839;BME280;4958;48.150;11.506;2022-07-10T16:07:27;96091.88;;;23.37;36.95
9839;BME280;4958;48.150;11.506;2022-07-10T16:09:53;96100.44;;;23.28;37.02
9839;BME280;4958;48.150;11.506;2022-07-10T16:12:20;96105.50;;;23.34;36.32
9839;BME280;4958;48.150;11.506;2022-07-10T16:14:48;96096.56;;;23.35;36.38
9839;BME280;4958;48.150;11.506;2022-07-10T16:17:15;96102.44;;;23.21;36.36
9839;BME280;4958;48.150;11.506;2022-07-10T16:19:42;96103.00;;;23.23;37.05
9839;BME280;4958;48.150;11.506;2022-07-10T16:22:11;96107.56;;;23.32;36.68
9839;BME280;4958;48.150;11.506;2022-07-10T16:24:37;96111.13;;;23.21;36.91
9839;BME280;4958;48.150;11.506;2022-07-10T16:27:24;96110.72;;;23.13;36.75
9839;BME280;4958;48.150;11.506;2022-07-10T16:29:51;96097.81;;;23.11;36.81
9839;BME280;4958;48.150;11.506;2022-07-10T16:32:18;96098.44;;;22.96;36.63
9839;BME280;4958;48.150;11.506;2022-07-10T16:34:45;96094.03;;;23.02;37.50
9839;BME280;4958;48.150;11.506;2022-07-10T16:37:12;96093.56;;;23.05;36.85
9839;BME280;4958;48.150;11.506;2022-07-10T16:39:38;96090.00;;;22.94;37.00
9839;BME280;4958;48.150;11.506;2022-07-10T16:42:05;96095.91;;;22.85;36.46
9839;BME280;4958;48.150;11.506;2022-07-10T16:44:31;96100.50;;;22.78;37.46
9839;BME280;4958;48.150;11.506;2022-07-10T16:46:59;96096.50;;;22.75;36.92
9839;BME280;4958;48.150;11.506;2022-07-10T16:49:25;96105.59;;;22.67;37.18
9839;BME280;4958;48.150;11.506;2022-07-10T16:51:52;96103.94;;;22.61;37.09
9839;BME280;4958;48.150;11.506;2022-07-10T16:54:18;96102.00;;;22.57;37.13
9839;BME280;4958;48.150;11.506;2022-07-10T16:56:45;96112.03;;;22.60;37.27
9839;BME280;4958;48.150;11.506;2022-07-10T16:59:12;96102.81;;;22.57;36.90
9839;BME280;4958;48.150;11.506;2022-07-10T17:01:38;96103.69;;;22.46;36.84
9839;BME280;4958;48.150;11.506;2022-07-10T17:04:06;96104.63;;;22.40;37.38
9839;BME280;4958;48.150;11.506;2022-07-10T17:06:32;96115.69;;;22.42;37.44
9839;BME280;4958;48.150;11.506;2022-07-10T17:08:59;96104.25;;;22.31;36.74
9839;BME280;4958;48.150;11.506;2022-07-10T17:11:25;96103.25;;;22.21;37.31
9839;BME280;4958;48.150;11.506;2022-07-10T17:13:55;96113.09;;;22.14;37.75
9839;BME280;4958;48.150;11.506;2022-07-10T17:18:47;96108.59;;;21.97;38.26
9839;BME280;4958;48.150;11.506;2022-07-10T17:21:15;96105.63;;;21.94;38.10
9839;BME280;4958;48.150;11.506;2022-07-10T17:23:44;96114.22;;;21.89;38.58
9839;BME280;4958;48.150;11.506;2022-07-10T17:26:10;96117.22;;;21.81;38.65
9839;BME280;4958;48.150;11.506;2022-07-10T17:28:37;96123.72;;;21.79;38.19
9839;BME280;4958;48.150;11.506;2022-07-10T17:31:03;96122.56;;;21.86;38.72
9839;BME280;4958;48.150;11.506;2022-07-10T17:33:30;96118.41;;;21.74;39.37
9839;BME280;4958;48.150;11.506;2022-07-10T17:35:57;96123.94;;;21.77;42.60
9839;BME280;4958;48.150;11.506;2022-07-10T17:38:25;96122.28;;;21.71;39.54
9839;BME280;4958;48.150;11.506;2022-07-10T17:40:54;96127.69;;;21.81;44.56
9839;BME280;4958;48.150;11.506;2022-07-10T17:43:24;96135.00;;;21.79;44.24
9839;BME280;4958;48.150;11.506;2022-07-10T17:45:51;96126.19;;;21.85;42.66
9839;BME280;4958;48.150;11.506;2022-07-10T17:48:17;96135.44;;;21.88;43.67
9839;BME280;4958;48.150;11.506;2022-07-10T17:50:44;96134.75;;;21.92;40.77
9839;BME280;4958;48.150;11.506;2022-07-10T17:53:11;96132.56;;;22.01;41.99
9839;BME280;4958;48.150;11.506;2022-07-10T17:55:38;96134.00;;;21.97;40.12
9839;BME280;4958;48.150;11.506;2022-07-10T17:58:05;96134.53;;;21.82;41.64
9839;BME280;4958;48.150;11.506;2022-07-10T18:00:31;96133.28;;;21.85;42.46
9839;BME280;4958;48.150;11.506;2022-07-10T18:02:58;96134.19;;;21.79;43.52
9839;BME280;4958;48.150;11.506;2022-07-10T18:05:24;96138.34;;;21.63;39.66
9839;BME280;4958;48.150;11.506;2022-07-10T18:07:51;96140.41;;;21.61;40.31
9839;BME280;4958;48.150;11.506;2022-07-10T18:10:17;96140.19;;;21.62;40.14
9839;BME280;4958;48.150;11.506;2022-07-10T18:12:45;96145.19;;;21.64;42.25
9839;BME280;4958;48.150;11.506;2022-07-10T18:15:12;96151.03;;;21.54;41.93
9839;BME280;4958;48.150;11.506;2022-07-10T18:17:38;96147.72;;;21.47;39.78
9839;BME280;4958;48.150;11.506;2022-07-10T18:20:06;96155.47;;;21.42;41.92
9839;BME280;4958;48.150;11.506;2022-07-10T18:22:32;96155.81;;;21.46;41.14
9839;BME280;4958;48.150;11.506;2022-07-10T18:24:59;96150.13;;;21.49;41.82
9839;BME280;4958;48.150;11.506;2022-07-10T18:27:34;96158.00;;;21.49;39.94
9839;BME280;4958;48.150;11.506;2022-07-10T18:30:03;96157.84;;;21.55;43.25
9839;BME280;4958;48.150;11.506;2022-07-10T18:32:30;96148.19;;;21.44;39.91
9839;BME280;4958;48.150;11.506;2022-07-10T18:35:14;96150.38;;;21.35;40.46
9839;BME280;4958;48.150;11.506;2022-07-10T18:37:41;96154.47;;;21.20;40.92
9839;BME280;4958;48.150;11.506;2022-07-10T18:40:08;96153.44;;;21.21;41.96
9839;BME280;4958;48.150;11.506;2022-07-10T18:42:35;96164.34;;;21.18;40.17
9839;BME280;4958;48.150;11.506;2022-07-10T18:45:04;96165.19;;;21.30;41.94
9839;BME280;4958;48.150;11.506;2022-07-10T18:47:31;96171.69;;;21.27;40.14
9839;BME280;4958;48.150;11.506;2022-07-10T18:49:57;96171.91;;;21.14;40.05
9839;BME280;4958;48.150;11.506;2022-07-10T18:52:24;96173.69;;;20.90;40.16
9839;BME280;4958;48.150;11.506;2022-07-10T18:54:51;96185.28;;;20.83;40.40
9839;BME280;4958;48.150;11.506;2022-07-10T18:57:17;96173.56;;;20.74;40.35
9839;BME280;4958;48.150;11.506;2022-07-10T18:59:46;96179.69;;;20.67;40.70
9839;BME280;4958;48.150;11.506;2022-07-10T19:02:13;96179.25;;;20.59;41.24
9839;BME280;4958;48.150;11.506;2022-07-10T19:04:40;96189.13;;;20.57;41.36
9839;BME280;4958;48.150;11.506;2022-07-10T19:07:06;96189.56;;;20.54;41.22
9839;BME280;4958;48.150;11.506;2022-07-10T19:09:33;96186.09;;;20.42;41.33
9839;BME280;4958;48.150;11.506;2022-07-10T19:12:00;96195.22;;;20.39;41.43
9839;BME280;4958;48.150;11.506;2022-07-10T19:14:27;96194.19;;;20.40;41.40
9839;BME280;4958;48.150;11.506;2022-07-10T19:16:53;96191.56;;;20.40;41.46
9839;BME280;4958;48.150;11.506;2022-07-10T19:19:21;96205.44;;;20.41;41.73
9839;BME280;4958;48.150;11.506;2022-07-10T19:21:47;96201.53;;;20.31;41.72
9839;BME280;4958;48.150;11.506;2022-07-10T19:24:14;96201.81;;;20.23;41.65
9839;BME280;4958;48.150;11.506;2022-07-10T19:26:40;96214.50;;;20.08;42.13
9839;BME280;4958;48.150;11.506;2022-07-10T19:29:07;96215.63;;;20.00;42.27
9839;BME280;4958;48.150;11.506;2022-07-10T19:31:33;96217.44;;;20.00;42.42
9839;BME280;4958;48.150;11.506;2022-07-10T19:33:59;96220.03;;;20.00;42.70
9839;BME280;4958;48.150;11.506;2022-07-10T19:36:27;96229.97;;;19.91;43.29
9839;BME280;4958;48.150;11.506;2022-07-10T19:38:53;96230.72;;;19.98;42.82
9839;BME280;4958;48.150;11.506;2022-07-10T19:41:21;96236.81;;;19.92;42.92
9839;BME280;4958;48.150;11.506;2022-07-10T19:43:47;96238.63;;;19.92;42.86
9839;BME280;4958;48.150;11.506;2022-07-10T19:46:14;96237.69;;;19.86;43.50
9839;BME280;4958;48.150;11.506;2022-07-10T19:48:40;96236.59;;;19.76;43.92
9839;BME280;4958;48.150;11.506;2022-07-10T19:51:12;96237.47;;;19.70;44.02
9839;BME280;4958;48.150;11.506;2022-07-10T19:53:48;96244.59;;;19.62;44.24
9839;BME280;4958;48.150;11.506;2022-07-10T19:56:14;96240.13;;;19.63;44.52
9839;BME280;4958;48.150;11.506;2022-07-10T19:58:41;96237.88;;;19.66;44.01
9839;BME280;4958;48.150;11.506;2022-07-10T20:01:07;96243.13;;;19.66;44.08
9839;BME280;4958;48.150;11.506;2022-07-10T20:03:34;96247.13;;;19.69;44.24
9839;BME280;4958;48.150;11.506;2022-07-10T20:06:00;96248.06;;;19.75;44.06
9839;BME280;4958;48.150;11.506;2022-07-10T20:08:27;96253.28;;;19.75;44.15
9839;BME280;4958;48.150;11.506;2022-07-10T20:10:55;96255.53;;;19.71;44.16
9839;BME280;4958;48.150;11.506;2022-07-10T20:13:21;96247.31;;;19.67;44.39
9839;BME280;4958;48.150;11.506;2022-07-10T20:15:47;96252.31;;;19.51;45.04
9839;BME280;4958;48.150;11.506;2022-07-10T20:18:16;96253.88;;;19.33;46.05
9839;BME280;4958;48.150;11.506;2022-07-10T20:20:42;96261.47;;;19.35;45.89
9839;BME280;4958;48.150;11.506;2022-07-10T20:23:09;96251.84;;;19.36;45.86
9839;BME280;4958;48.150;11.506;2022-07-10T20:25:35;96252.84;;;19.35;45.79
9839;BME280;4958;48.150;11.506;2022-07-10T20:28:03;96258.13;;;19.28;46.32
9839;BME280;4958;48.150;11.506;2022-07-10T20:30:30;96261.41;;;19.23;46.61
9839;BME280;4958;48.150;11.506;2022-07-10T20:32:56;96255.94;;;19.25;46.60
9839;BME280;4958;48.150;11.506;2022-07-10T20:35:23;96252.91;;;19.28;46.71
9839;BME280;4958;48.150;11.506;2022-07-10T20:37:49;96256.31;;;19.28;47.06
9839;BME280;4958;48.150;11.506;2022-07-10T20:40:16;96258.50;;;19.31;47.50
9839;BME280;4958;48.150;11.506;2022-07-10T20:42:44;96254.06;;;19.32;47.70
9839;BME280;4958;48.150;11.506;2022-07-10T20:45:11;96260.00;;;19.21;48.35
9839;BME280;4958;48.150;11.506;2022-07-10T20:47:39;96255.78;;;19.20;47.97
9839;BME280;4958;48.150;11.506;2022-07-10T20:50:06;96257.97;;;18.98;48.74
9839;BME280;4958;48.150;11.506;2022-07-10T20:52:33;96261.81;;;18.64;49.68
9839;BME280;4958;48.150;11.506;2022-07-10T20:55:00;96265.09;;;18.46;50.27
9839;BME280;4958;48.150;11.506;2022-07-10T20:57:27;96265.34;;;18.32;50.40
9839;BME280;4958;48.150;11.506;2022-07-10T20:59:53;96265.34;;;18.32;50.07
9839;BME280;4958;48.150;11.506;2022-07-10T21:02:21;96256.50;;;18.39;49.74
9839;BME280;4958;48.150;11.506;2022-07-10T21:04:47;96265.53;;;18.43;49.66
9839;BME280;4958;48.150;11.506;2022-07-10T21:07:14;96268.94;;;18.44;49.74
9839;BME280;4958;48.150;11.506;2022-07-10T21:09:41;96265.13;;;18.40;50.05
9839;BME280;4958;48.150;11.506;2022-07-10T21:12:08;96264.53;;;18.38;50.27
9839;BME280;4958;48.150;11.506;2022-07-10T21:14:35;96270.19;;;18.28;50.74
9839;BME280;4958;48.150;11.506;2022-07-10T21:17:01;96269.81;;;18.24;50.71
9839;BME280;4958;48.150;11.506;2022-07-10T21:19:29;96269.44;;;18.21;50.42
9839;BME280;4958;48.150;11.506;2022-07-10T21:21:56;96272.84;;;18.21;50.73
9839;BME280;4958;48.150;11.506;2022-07-10T21:24:22;96263.81;;;18.24;50.09
9839;BME280;4958;48.150;11.506;2022-07-10T21:26:49;96260.63;;;18.15;50.64
9839;BME280;4958;48.150;11.506;2022-07-10T21:29:15;96257.63;;;18.12;50.41
9839;BME280;4958;48.150;11.506;2022-07-10T21:31:42;96261.59;;;18.21;50.24
9839;BME280;4958;48.150;11.506;2022-07-10T21:34:08;96256.59;;;18.26;50.41
9839;BME280;4958;48.150;11.506;2022-07-10T21:36:36;96268.47;;;18.09;50.80
9839;BME280;4958;48.150;11.506;2022-07-10T21:39:02;96260.88;;;18.07;51.03
9839;BME280;4958;48.150;11.506;2022-07-10T21:41:29;96260.81;;;18.14;50.91
9839;BME280;4958;48.150;11.506;2022-07-10T21:43:55;96253.84;;;18.08;50.58
9839;BME280;4958;48.150;11.506;2022-07-10T21:46:21;96254.69;;;17.95;51.34
9839;BME280;4958;48.150;11.506;2022-07-10T21:48:48;96254.06;;;18.00;50.82
9839;BME280;4958;48.150;11.506;2022-07-10T21:51:14;96263.28;;;18.09;50.27
9839;BME280;4958;48.150;11.506;2022-07-10T21:53:42;96256.47;;;18.08;50.40
9839;BME280;4958;48.150;11.506;2022-07-10T21:56:08;96262.03;;;18.11;49.84
9839;BME280;4958;48.150;11.506;2022-07-10T21:58:35;96260.44;;;18.10;50.32
9839;BME280;4958;48.150;11.506;2022-07-10T22:01:01;96267.03;;;18.13;50.12
9839;BME280;4958;48.150;11.506;2022-07-10T22:03:27;96265.03;;;18.15;50.16
9839;BME280;4958;48.150;11.506;2022-07-10T22:05:54;96262.63;;;18.20;50.13
9839;BME280;4958;48.150;11.506;2022-07-10T22:08:20;96265.81;;;18.22;50.16
9839;BME280;4958;48.150;11.506;2022-07-10T22:10:48;96266.81;;;18.27;50.02
9839;BME280;4958;48.150;11.506;2022-07-10T22:13:14;96261.59;;;18.27;49.96
9839;BME280;4958;48.150;11.506;2022-07-10T22:15:41;96260.34;;;18.30;49.77
9839;BME280;4958;48.150;11.506;2022-07-10T22:18:08;96263.16;;;18.28;50.34
9839;BME280;4958;48.150;11.506;2022-07-10T22:20:35;96265.00;;;18.21;50.07
9839;BME280;4958;48.150;11.506;2022-07-10T22:23:01;96261.41;;;18.16;50.24
9839;BME280;4958;48.150;11.506;2022-07-10T22:25:28;96260.03;;;18.13;50.28
9839;BME280;4958;48.150;11.506;2022-07-10T22:27:56;96258.84;;;18.09;50.41
9839;BME280;4958;48.150;11.506;2022-07-10T22:30:22;96261.66;;;18.08;50.45
9839;BME280;4958;48.150;11.506;2022-07-10T22:33:06;96258.06;;;18.09;50.79
9839;BME280;4958;48.150;11.506;2022-07-10T22:35:33;96257.66;;;18.05;50.98
9839;BME280;4958;48.150;11.506;2022-07-10T22:38:00;96258.84;;;18.09;50.88
9839;BME280;4958;48.150;11.506;2022-07-10T22:40:26;96256.81;;;18.11;50.67
9839;BME280;4958;48.150;11.506;2022-07-10T22:42:53;96252.00;;;18.15;50.50
9839;BME280;4958;48.150;11.506;2022-07-10T22:45:20;96254.00;;;18.13;50.46
9839;BME280;4958;48.150;11.506;2022-07-10T22:47:47;96250.84;;;18.04;50.95
9839;BME280;4958;48.150;11.506;2022-07-10T22:50:13;96251.06;;;17.96;51.20
9839;BME280;4958;48.150;11.506;2022-07-10T22:52:40;96249.25;;;17.97;51.19
9839;BME280;4958;48.150;11.506;2022-07-10T22:55:07;96249.06;;;17.91;51.54
9839;BME280;4958;48.150;11.506;2022-07-10T22:57:33;96257.75;;;17.79;51.75
9839;BME280;4958;48.150;11.506;2022-07-10T23:00:00;96251.34;;;17.75;51.89
9839;BME280;4958;48.150;11.506;2022-07-10T23:02:28;96254.75;;;17.75;52.14
9839;BME280;4958;48.150;11.506;2022-07-10T23:04:54;96244.34;;;17.69;52.03
9839;BME280;4958;48.150;11.506;2022-07-10T23:07:20;96252.75;;;17.57;52.66
9839;BME280;4958;48.150;11.506;2022-07-10T23:09:47;96254.34;;;17.58;52.71
9839;BME280;4958;48.150;11.506;2022-07-10T23:12:13;96250.53;;;17.61;52.32
9839;BME280;4958;48.150;11.506;2022-07-10T23:14:39;96249.75;;;17.60;53.21
9839;BME280;4958;48.150;11.506;2022-07-10T23:17:06;96247.56;;;17.64;52.46
9839;BME280;4958;48.150;11.506;2022-07-10T23:19:34;96245.75;;;17.58;52.79
9839;BME280;4958;48.150;11.506;2022-07-10T23:22:00;96245.53;;;17.53;53.11
9839;BME280;4958;48.150;11.506;2022-07-10T23:24:27;96245.94;;;17.56;53.30
9839;BME280;4958;48.150;11.506;2022-07-10T23:26:53;96242.72;;;17.54;53.10
9839;BME280;4958;48.150;11.506;2022-07-10T23:29:19;96244.16;;;17.50;52.55
9839;BME280;4958;48.150;11.506;2022-07-10T23:31:46;96240.16;;;17.48;52.94
9839;BME280;4958;48.150;11.506;2022-07-10T23:34:12;96240.16;;;17.48;52.77
9839;BME280;4958;48.150;11.506;2022-07-10T23:36:40;96248.78;;;17.48;52.97
9839;BME280;4958;48.150;11.506;2022-07-10T23:39:06;96242.94;;;17.53;52.81
9839;BME280;4958;48.150;11.506;2022-07-10T23:41:35;96244.34;;;17.55;52.83
9839;BME280;4958;48.150;11.506;2022-07-10T23:44:02;96243.38;;;17.50;52.72
9839;BME280;4958;48.150;11.506;2022-07-10T23:46:28;96243.94;;;17.52;52.63
9839;BME280;4958;48.150;11.506;2022-07-10T23:48:55;96245.53;;;17.53;52.95
9839;BME280;4958;48.150;11.506;2022-07-10T23:51:42;96241.34;;;17.58;52.68
9839;BME280;4958;48.150;11.506;2022-07-10T23:54:09;96233.72;;;17.57;52.38
9839;BME280;4958;48.150;11.506;2022-07-10T23:56:35;96237.53;;;17.54;52.58
9839;BME280;4958;48.150;11.506;2022-07-10T23:59:01;96236.31;;;17.57;52.67
